sensor_id;sensor_type;location;lat;lon;timestamp;P1;durP1;ratioP1;P2;durP2;ratioP2
72517;SDS011;60540;51.178;6.738;2023-03-03T00:00:51;29.08;;;13.15;;
72517;SDS011;60540;51.178;6.738;2023-03-03T00:03:21;28.85;;;13.30;;
72517;SDS011;60540;51.178;6.738;2023-03-03T00:05:48;33.60;;;14.27;;
72517;SDS011;60540;51.178;6.738;2023-03-03T00:08:14;25.95;;;13.73;;
72517;SDS011;60540;51.178;6.738;2023-03-03T00:10:40;27.63;;;13.52;;
72517;SDS011;60540;51.178;6.738;2023-03-03T00:13:16;27.98;;;13.20;;
72517;SDS011;60540;51.178;6.738;2023-03-03T00:15:49;28.10;;;12.95;;
72517;SDS011;60540;51.178;6.738;2023-03-03T00:18:24;27.73;;;13.05;;
72517;SDS011;60540;51.178;6.738;2023-03-03T00:20:56;30.88;;;13.82;;
72517;SDS011;60540;51.178;6.738;2023-03-03T00:23:27;33.33;;;12.63;;
72517;SDS011;60540;51.178;6.738;2023-03-03T00:25:56;28.90;;;13.70;;
72517;SDS011;60540;51.178;6.738;2023-03-03T00:30:50;34.85;;;13.27;;
72517;SDS011;60540;51.178;6.738;2023-03-03T00:33:28;31.38;;;13.52;;
72517;SDS011;60540;51.178;6.738;2023-03-03T00:35:58;34.15;;;14.45;;
72517;SDS011;60540;51.178;6.738;2023-03-03T00:38:35;29.88;;;13.52;;
72517;SDS011;60540;51.178;6.738;2023-03-03T00:41:03;30.65;;;13.13;;
72517;SDS011;60540;51.178;6.738;2023-03-03T00:43:39;29.75;;;14.35;;
72517;SDS011;60540;51.178;6.738;2023-03-03T00:46:07;31.65;;;14.32;;
72517;SDS011;60540;51.178;6.738;2023-03-03T00:51:00;34.80;;;14.60;;
72517;SDS011;60540;51.178;6.738;2023-03-03T00:53:27;34.97;;;14.45;;
72517;SDS011;60540;51.178;6.738;2023-03-03T00:55:54;35.22;;;14.85;;
72517;SDS011;60540;51.178;6.738;2023-03-03T00:58:20;32.10;;;14.43;;
72517;SDS011;60540;51.178;6.738;2023-03-03T01:00:48;30.30;;;13.25;;
72517;SDS011;60540;51.178;6.738;2023-03-03T01:03:16;32.10;;;14.02;;
72517;SDS011;60540;51.178;6.738;2023-03-03T01:05:43;34.28;;;13.27;;
72517;SDS011;60540;51.178;6.738;2023-03-03T01:08:09;33.55;;;15.02;;
72517;SDS011;60540;51.178;6.738;2023-03-03T01:10:36;33.95;;;15.10;;
72517;SDS011;60540;51.178;6.738;2023-03-03T01:13:07;32.47;;;13.05;;
72517;SDS011;60540;51.178;6.738;2023-03-03T01:15:33;33.40;;;14.40;;
72517;SDS011;60540;51.178;6.738;2023-03-03T01:17:59;34.47;;;15.07;;
72517;SDS011;60540;51.178;6.738;2023-03-03T01:20:25;34.95;;;13.88;;
72517;SDS011;60540;51.178;6.738;2023-03-03T01:22:51;34.70;;;15.90;;
72517;SDS011;60540;51.178;6.738;2023-03-03T01:25:16;36.40;;;15.23;;
72517;SDS011;60540;51.178;6.738;2023-03-03T01:27:42;33.95;;;15.63;;
72517;SDS011;60540;51.178;6.738;2023-03-03T01:30:08;42.15;;;14.95;;
72517;SDS011;60540;51.178;6.738;2023-03-03T01:32:34;33.35;;;15.05;;
72517;SDS011;60540;51.178;6.738;2023-03-03T01:35:00;35.80;;;13.80;;
72517;SDS011;60540;51.178;6.738;2023-03-03T01:37:26;38.42;;;15.82;;
72517;SDS011;60540;51.178;6.738;2023-03-03T01:39:52;34.95;;;14.38;;
72517;SDS011;60540;51.178;6.738;2023-03-03T01:42:19;33.85;;;14.75;;
72517;SDS011;60540;51.178;6.738;2023-03-03T01:44:45;35.90;;;15.07;;
72517;SDS011;60540;51.178;6.738;2023-03-03T01:49:55;39.35;;;14.88;;
72517;SDS011;60540;51.178;6.738;2023-03-03T01:52:31;33.38;;;14.80;;
72517;SDS011;60540;51.178;6.738;2023-03-03T01:54:59;37.78;;;15.73;;
72517;SDS011;60540;51.178;6.738;2023-03-03T01:57:29;35.38;;;14.35;;
72517;SDS011;60540;51.178;6.738;2023-03-03T01:59:57;33.80;;;14.38;;
72517;SDS011;60540;51.178;6.738;2023-03-03T02:02:25;40.00;;;15.52;;
72517;SDS011;60540;51.178;6.738;2023-03-03T02:05:03;36.22;;;15.82;;
72517;SDS011;60540;51.178;6.738;2023-03-03T02:07:29;35.55;;;14.25;;
72517;SDS011;60540;51.178;6.738;2023-03-03T02:09:57;34.08;;;15.13;;
72517;SDS011;60540;51.178;6.738;2023-03-03T02:12:34;33.20;;;14.43;;
72517;SDS011;60540;51.178;6.738;2023-03-03T02:15:50;36.42;;;13.55;;
72517;SDS011;60540;51.178;6.738;2023-03-03T02:18:04;32.50;;;13.02;;
72517;SDS011;60540;51.178;6.738;2023-03-03T02:28:22;38.13;;;15.77;;
72517;SDS011;60540;51.178;6.738;2023-03-03T02:30:52;36.83;;;15.05;;
72517;SDS011;60540;51.178;6.738;2023-03-03T02:33:19;38.03;;;14.57;;
72517;SDS011;60540;51.178;6.738;2023-03-03T02:35:45;37.40;;;14.18;;
72517;SDS011;60540;51.178;6.738;2023-03-03T02:38:16;36.25;;;16.45;;
72517;SDS011;60540;51.178;6.738;2023-03-03T02:40:55;36.55;;;15.35;;
72517;SDS011;60540;51.178;6.738;2023-03-03T02:43:25;41.53;;;15.27;;
72517;SDS011;60540;51.178;6.738;2023-03-03T02:45:54;34.88;;;14.98;;
72517;SDS011;60540;51.178;6.738;2023-03-03T02:48:20;32.90;;;15.00;;
72517;SDS011;60540;51.178;6.738;2023-03-03T02:50:46;37.28;;;14.68;;
72517;SDS011;60540;51.178;6.738;2023-03-03T02:53:12;35.22;;;13.98;;
72517;SDS011;60540;51.178;6.738;2023-03-03T02:55:37;37.67;;;16.00;;
72517;SDS011;60540;51.178;6.738;2023-03-03T02:58:03;35.85;;;15.63;;
72517;SDS011;60540;51.178;6.738;2023-03-03T03:00:29;39.58;;;16.20;;
72517;SDS011;60540;51.178;6.738;2023-03-03T03:02:55;44.50;;;18.08;;
72517;SDS011;60540;51.178;6.738;2023-03-03T03:05:20;41.03;;;17.50;;
72517;SDS011;60540;51.178;6.738;2023-03-03T03:07:46;40.53;;;16.23;;
72517;SDS011;60540;51.178;6.738;2023-03-03T03:10:12;39.83;;;17.27;;
72517;SDS011;60540;51.178;6.738;2023-03-03T03:12:38;35.83;;;14.60;;
72517;SDS011;60540;51.178;6.738;2023-03-03T03:15:03;45.78;;;16.75;;
72517;SDS011;60540;51.178;6.738;2023-03-03T03:17:29;38.33;;;14.52;;
72517;SDS011;60540;51.178;6.738;2023-03-03T03:19:55;35.25;;;15.38;;
72517;SDS011;60540;51.178;6.738;2023-03-03T03:22:21;36.67;;;15.85;;
72517;SDS011;60540;51.178;6.738;2023-03-03T03:24:47;44.92;;;16.52;;
72517;SDS011;60540;51.178;6.738;2023-03-03T03:27:12;35.33;;;14.80;;
72517;SDS011;60540;51.178;6.738;2023-03-03T03:29:38;37.90;;;16.85;;
72517;SDS011;60540;51.178;6.738;2023-03-03T03:32:04;34.85;;;14.80;;
72517;SDS011;60540;51.178;6.738;2023-03-03T03:34:30;37.42;;;15.60;;
72517;SDS011;60540;51.178;6.738;2023-03-03T03:36:55;36.00;;;16.13;;
72517;SDS011;60540;51.178;6.738;2023-03-03T03:39:21;37.25;;;15.60;;
72517;SDS011;60540;51.178;6.738;2023-03-03T03:41:47;39.42;;;16.17;;
72517;SDS011;60540;51.178;6.738;2023-03-03T03:44:13;40.25;;;16.50;;
72517;SDS011;60540;51.178;6.738;2023-03-03T03:46:39;40.25;;;15.57;;
72517;SDS011;60540;51.178;6.738;2023-03-03T03:49:05;41.13;;;17.63;;
72517;SDS011;60540;51.178;6.738;2023-03-03T03:51:30;39.05;;;17.67;;
72517;SDS011;60540;51.178;6.738;2023-03-03T03:53:58;44.65;;;16.95;;
72517;SDS011;60540;51.178;6.738;2023-03-03T03:56:24;44.67;;;17.15;;
72517;SDS011;60540;51.178;6.738;2023-03-03T03:58:49;38.60;;;16.35;;
72517;SDS011;60540;51.178;6.738;2023-03-03T04:01:15;43.65;;;18.38;;
72517;SDS011;60540;51.178;6.738;2023-03-03T04:03:40;44.08;;;17.48;;
72517;SDS011;60540;51.178;6.738;2023-03-03T04:06:07;45.70;;;18.33;;
72517;SDS011;60540;51.178;6.738;2023-03-03T04:08:32;42.53;;;17.15;;
72517;SDS011;60540;51.178;6.738;2023-03-03T04:10:58;49.20;;;18.63;;
72517;SDS011;60540;51.178;6.738;2023-03-03T04:13:24;47.75;;;18.95;;
72517;SDS011;60540;51.178;6.738;2023-03-03T04:15:53;47.15;;;18.15;;
72517;SDS011;60540;51.178;6.738;2023-03-03T04:18:19;44.88;;;17.33;;
72517;SDS011;60540;51.178;6.738;2023-03-03T04:20:44;43.42;;;16.60;;
72517;SDS011;60540;51.178;6.738;2023-03-03T04:23:10;43.90;;;16.50;;
72517;SDS011;60540;51.178;6.738;2023-03-03T04:25:36;39.42;;;16.40;;
72517;SDS011;60540;51.178;6.738;2023-03-03T04:28:01;41.15;;;16.95;;
72517;SDS011;60540;51.178;6.738;2023-03-03T04:30:27;45.63;;;17.35;;
72517;SDS011;60540;51.178;6.738;2023-03-03T04:32:53;45.65;;;17.08;;
72517;SDS011;60540;51.178;6.738;2023-03-03T04:35:19;42.50;;;17.30;;
72517;SDS011;60540;51.178;6.738;2023-03-03T04:37:44;45.97;;;16.90;;
72517;SDS011;60540;51.178;6.738;2023-03-03T04:40:10;37.85;;;15.30;;
72517;SDS011;60540;51.178;6.738;2023-03-03T04:42:36;36.90;;;14.85;;
72517;SDS011;60540;51.178;6.738;2023-03-03T04:45:03;44.47;;;18.02;;
72517;SDS011;60540;51.178;6.738;2023-03-03T04:47:29;46.35;;;17.35;;
72517;SDS011;60540;51.178;6.738;2023-03-03T04:52:22;41.53;;;15.55;;
72517;SDS011;60540;51.178;6.738;2023-03-03T04:54:48;44.50;;;17.17;;
72517;SDS011;60540;51.178;6.738;2023-03-03T04:57:13;44.03;;;16.38;;
72517;SDS011;60540;51.178;6.738;2023-03-03T04:59:39;40.63;;;15.98;;
72517;SDS011;60540;51.178;6.738;2023-03-03T05:02:05;44.25;;;16.95;;
72517;SDS011;60540;51.178;6.738;2023-03-03T05:04:31;43.65;;;16.90;;
72517;SDS011;60540;51.178;6.738;2023-03-03T05:06:57;45.03;;;16.70;;
72517;SDS011;60540;51.178;6.738;2023-03-03T05:09:23;39.85;;;17.38;;
72517;SDS011;60540;51.178;6.738;2023-03-03T05:11:49;44.15;;;16.80;;
72517;SDS011;60540;51.178;6.738;2023-03-03T05:14:15;44.95;;;16.33;;
72517;SDS011;60540;51.178;6.738;2023-03-03T05:16:40;41.33;;;15.75;;
72517;SDS011;60540;51.178;6.738;2023-03-03T05:19:06;48.60;;;19.27;;
72517;SDS011;60540;51.178;6.738;2023-03-03T05:21:32;50.67;;;18.75;;
72517;SDS011;60540;51.178;6.738;2023-03-03T05:23:57;44.40;;;16.08;;
72517;SDS011;60540;51.178;6.738;2023-03-03T05:26:23;44.55;;;16.83;;
72517;SDS011;60540;51.178;6.738;2023-03-03T05:28:49;47.70;;;15.40;;
72517;SDS011;60540;51.178;6.738;2023-03-03T05:31:15;41.85;;;16.50;;
72517;SDS011;60540;51.178;6.738;2023-03-03T05:33:41;49.55;;;16.95;;
72517;SDS011;60540;51.178;6.738;2023-03-03T05:36:06;48.05;;;15.93;;
72517;SDS011;60540;51.178;6.738;2023-03-03T05:38:32;41.63;;;14.65;;
72517;SDS011;60540;51.178;6.738;2023-03-03T05:40:58;43.88;;;14.50;;
72517;SDS011;60540;51.178;6.738;2023-03-03T05:43:24;35.65;;;13.23;;
72517;SDS011;60540;51.178;6.738;2023-03-03T05:45:54;35.35;;;13.05;;
72517;SDS011;60540;51.178;6.738;2023-03-03T05:48:21;30.25;;;13.43;;
72517;SDS011;60540;51.178;6.738;2023-03-03T05:50:46;35.13;;;12.43;;
72517;SDS011;60540;51.178;6.738;2023-03-03T05:53:12;32.80;;;13.20;;
72517;SDS011;60540;51.178;6.738;2023-03-03T05:55:38;34.22;;;13.00;;
72517;SDS011;60540;51.178;6.738;2023-03-03T05:58:04;35.53;;;13.80;;
72517;SDS011;60540;51.178;6.738;2023-03-03T06:00:29;35.08;;;13.15;;
72517;SDS011;60540;51.178;6.738;2023-03-03T06:02:55;33.83;;;13.45;;
72517;SDS011;60540;51.178;6.738;2023-03-03T06:05:21;41.03;;;13.80;;
72517;SDS011;60540;51.178;6.738;2023-03-03T06:07:46;30.55;;;12.55;;
72517;SDS011;60540;51.178;6.738;2023-03-03T06:10:12;31.15;;;13.32;;
72517;SDS011;60540;51.178;6.738;2023-03-03T06:12:38;30.77;;;12.32;;
72517;SDS011;60540;51.178;6.738;2023-03-03T06:15:05;33.80;;;11.98;;
72517;SDS011;60540;51.178;6.738;2023-03-03T06:17:31;33.80;;;12.77;;
72517;SDS011;60540;51.178;6.738;2023-03-03T06:19:57;38.58;;;13.38;;
72517;SDS011;60540;51.178;6.738;2023-03-03T06:22:23;37.13;;;12.75;;
72517;SDS011;60540;51.178;6.738;2023-03-03T06:24:48;38.33;;;13.57;;
72517;SDS011;60540;51.178;6.738;2023-03-03T06:27:14;34.03;;;12.38;;
72517;SDS011;60540;51.178;6.738;2023-03-03T06:29:40;36.63;;;13.52;;
72517;SDS011;60540;51.178;6.738;2023-03-03T06:32:06;38.88;;;14.25;;
72517;SDS011;60540;51.178;6.738;2023-03-03T06:34:31;35.78;;;12.80;;
72517;SDS011;60540;51.178;6.738;2023-03-03T06:36:57;34.15;;;12.65;;
72517;SDS011;60540;51.178;6.738;2023-03-03T06:39:23;34.45;;;12.18;;
72517;SDS011;60540;51.178;6.738;2023-03-03T06:41:49;36.17;;;12.45;;
72517;SDS011;60540;51.178;6.738;2023-03-03T06:44:15;35.20;;;12.35;;
72517;SDS011;60540;51.178;6.738;2023-03-03T06:46:41;35.75;;;13.07;;
72517;SDS011;60540;51.178;6.738;2023-03-03T06:49:07;32.95;;;12.27;;
72517;SDS011;60540;51.178;6.738;2023-03-03T06:51:34;32.25;;;11.93;;
72517;SDS011;60540;51.178;6.738;2023-03-03T06:54:09;29.50;;;12.93;;
72517;SDS011;60540;51.178;6.738;2023-03-03T06:56:40;29.92;;;12.18;;
72517;SDS011;60540;51.178;6.738;2023-03-03T06:59:13;31.58;;;12.18;;
72517;SDS011;60540;51.178;6.738;2023-03-03T07:01:40;30.23;;;11.75;;
72517;SDS011;60540;51.178;6.738;2023-03-03T07:04:12;30.05;;;10.85;;
72517;SDS011;60540;51.178;6.738;2023-03-03T07:06:41;34.85;;;11.63;;
72517;SDS011;60540;51.178;6.738;2023-03-03T07:09:18;27.75;;;10.85;;
72517;SDS011;60540;51.178;6.738;2023-03-03T07:11:53;34.70;;;10.65;;
72517;SDS011;60540;51.178;6.738;2023-03-03T07:14:21;26.20;;;11.02;;
72517;SDS011;60540;51.178;6.738;2023-03-03T07:16:50;31.73;;;11.10;;
72517;SDS011;60540;51.178;6.738;2023-03-03T07:19:34;32.17;;;12.70;;
72517;SDS011;60540;51.178;6.738;2023-03-03T07:24:38;29.63;;;10.02;;
72517;SDS011;60540;51.178;6.738;2023-03-03T07:29:30;27.77;;;10.02;;
72517;SDS011;60540;51.178;6.738;2023-03-03T07:35:06;33.92;;;11.73;;
72517;SDS011;60540;51.178;6.738;2023-03-03T07:37:16;25.77;;;9.73;;
72517;SDS011;60540;51.178;6.738;2023-03-03T07:42:58;27.45;;;10.93;;
72517;SDS011;60540;51.178;6.738;2023-03-03T07:45:28;27.02;;;10.60;;
72517;SDS011;60540;51.178;6.738;2023-03-03T07:48:07;34.60;;;12.43;;
72517;SDS011;60540;51.178;6.738;2023-03-03T07:50:38;28.63;;;11.48;;
72517;SDS011;60540;51.178;6.738;2023-03-03T07:58:26;23.27;;;9.45;;
72517;SDS011;60540;51.178;6.738;2023-03-03T08:03:55;24.60;;;10.20;;
72517;SDS011;60540;51.178;6.738;2023-03-03T08:06:30;25.92;;;10.07;;
72517;SDS011;60540;51.178;6.738;2023-03-03T08:11:33;31.05;;;10.88;;
72517;SDS011;60540;51.178;6.738;2023-03-03T08:13:59;27.95;;;10.85;;
72517;SDS011;60540;51.178;6.738;2023-03-03T08:16:38;26.95;;;10.68;;
72517;SDS011;60540;51.178;6.738;2023-03-03T08:19:04;34.08;;;11.30;;
72517;SDS011;60540;51.178;6.738;2023-03-03T08:21:30;29.23;;;9.77;;
72517;SDS011;60540;51.178;6.738;2023-03-03T08:23:58;27.40;;;10.88;;
72517;SDS011;60540;51.178;6.738;2023-03-03T08:26:23;31.38;;;12.23;;
72517;SDS011;60540;51.178;6.738;2023-03-03T08:28:50;27.55;;;9.82;;
72517;SDS011;60540;51.178;6.738;2023-03-03T08:31:16;31.10;;;11.45;;
72517;SDS011;60540;51.178;6.738;2023-03-03T08:33:43;25.38;;;10.10;;
72517;SDS011;60540;51.178;6.738;2023-03-03T08:36:09;29.75;;;10.98;;
72517;SDS011;60540;51.178;6.738;2023-03-03T08:38:35;29.35;;;11.23;;
72517;SDS011;60540;51.178;6.738;2023-03-03T08:41:01;31.02;;;9.65;;
72517;SDS011;60540;51.178;6.738;2023-03-03T08:43:28;31.95;;;10.20;;
72517;SDS011;60540;51.178;6.738;2023-03-03T08:45:56;32.35;;;12.75;;
72517;SDS011;60540;51.178;6.738;2023-03-03T08:48:24;26.92;;;10.48;;
72517;SDS011;60540;51.178;6.738;2023-03-03T08:50:50;31.02;;;11.02;;
72517;SDS011;60540;51.178;6.738;2023-03-03T08:53:16;34.80;;;11.55;;
72517;SDS011;60540;51.178;6.738;2023-03-03T08:55:43;28.77;;;9.80;;
72517;SDS011;60540;51.178;6.738;2023-03-03T08:58:09;28.98;;;11.70;;
72517;SDS011;60540;51.178;6.738;2023-03-03T09:00:35;31.95;;;11.88;;
72517;SDS011;60540;51.178;6.738;2023-03-03T09:03:01;34.83;;;11.70;;
72517;SDS011;60540;51.178;6.738;2023-03-03T09:05:27;31.48;;;11.30;;
72517;SDS011;60540;51.178;6.738;2023-03-03T09:07:53;30.80;;;12.05;;
72517;SDS011;60540;51.178;6.738;2023-03-03T09:10:21;31.98;;;11.82;;
72517;SDS011;60540;51.178;6.738;2023-03-03T09:12:52;29.48;;;11.48;;
72517;SDS011;60540;51.178;6.738;2023-03-03T09:15:28;34.85;;;11.65;;
72517;SDS011;60540;51.178;6.738;2023-03-03T09:17:58;36.08;;;12.13;;
72517;SDS011;60540;51.178;6.738;2023-03-03T09:25:48;32.72;;;11.68;;
72517;SDS011;60540;51.178;6.738;2023-03-03T09:28:25;33.75;;;13.07;;
72517;SDS011;60540;51.178;6.738;2023-03-03T09:33:45;34.05;;;12.52;;
72517;SDS011;60540;51.178;6.738;2023-03-03T09:36:18;31.92;;;11.05;;
72517;SDS011;60540;51.178;6.738;2023-03-03T09:38:44;30.63;;;12.43;;
72517;SDS011;60540;51.178;6.738;2023-03-03T09:47:12;34.97;;;12.70;;
72517;SDS011;60540;51.178;6.738;2023-03-03T09:49:51;37.83;;;12.45;;
72517;SDS011;60540;51.178;6.738;2023-03-03T09:52:45;33.03;;;11.85;;
72517;SDS011;60540;51.178;6.738;2023-03-03T09:58:18;34.97;;;12.07;;
72517;SDS011;60540;51.178;6.738;2023-03-03T10:06:10;38.83;;;10.30;;
72517;SDS011;60540;51.178;6.738;2023-03-03T10:08:56;36.08;;;13.15;;
72517;SDS011;60540;51.178;6.738;2023-03-03T10:14:10;35.38;;;11.77;;
72517;SDS011;60540;51.178;6.738;2023-03-03T10:28:03;34.53;;;11.95;;
72517;SDS011;60540;51.178;6.738;2023-03-03T10:31:01;34.72;;;13.45;;
72517;SDS011;60540;51.178;6.738;2023-03-03T10:39:11;35.17;;;12.80;;
72517;SDS011;60540;51.178;6.738;2023-03-03T10:41:47;30.55;;;11.73;;
72517;SDS011;60540;51.178;6.738;2023-03-03T10:55:00;29.35;;;11.68;;
72517;SDS011;60540;51.178;6.738;2023-03-03T11:02:49;28.45;;;11.02;;
72517;SDS011;60540;51.178;6.738;2023-03-03T11:08:03;27.63;;;10.35;;
72517;SDS011;60540;51.178;6.738;2023-03-03T11:15:43;22.92;;;9.32;;
72517;SDS011;60540;51.178;6.738;2023-03-03T11:18:14;31.65;;;11.15;;
72517;SDS011;60540;51.178;6.738;2023-03-03T11:21:08;26.85;;;10.43;;
72517;SDS011;60540;51.178;6.738;2023-03-03T11:23:57;30.95;;;12.27;;
72517;SDS011;60540;51.178;6.738;2023-03-03T11:34:52;30.30;;;10.73;;
72517;SDS011;60540;51.178;6.738;2023-03-03T11:40:04;28.23;;;10.90;;
72517;SDS011;60540;51.178;6.738;2023-03-03T11:42:44;30.75;;;11.15;;
72517;SDS011;60540;51.178;6.738;2023-03-03T11:45:30;28.10;;;10.70;;
72517;SDS011;60540;51.178;6.738;2023-03-03T11:50:44;27.90;;;10.38;;
72517;SDS011;60540;51.178;6.738;2023-03-03T11:55:51;31.23;;;10.35;;
72517;SDS011;60540;51.178;6.738;2023-03-03T11:58:42;34.35;;;12.43;;
72517;SDS011;60540;51.178;6.738;2023-03-03T12:03:47;31.13;;;11.40;;
72517;SDS011;60540;51.178;6.738;2023-03-03T12:06:25;31.70;;;11.32;;
72517;SDS011;60540;51.178;6.738;2023-03-03T12:09:18;22.67;;;10.70;;
72517;SDS011;60540;51.178;6.738;2023-03-03T12:14:39;32.17;;;12.52;;
72517;SDS011;60540;51.178;6.738;2023-03-03T12:20:14;27.05;;;9.25;;
72517;SDS011;60540;51.178;6.738;2023-03-03T12:25:21;24.48;;;9.43;;
72517;SDS011;60540;51.178;6.738;2023-03-03T12:36:24;27.45;;;9.63;;
72517;SDS011;60540;51.178;6.738;2023-03-03T12:42:15;22.42;;;9.05;;
72517;SDS011;60540;51.178;6.738;2023-03-03T12:47:53;24.20;;;8.98;;
72517;SDS011;60540;51.178;6.738;2023-03-03T12:55:43;25.13;;;9.27;;
72517;SDS011;60540;51.178;6.738;2023-03-03T12:58:22;27.33;;;10.38;;
72517;SDS011;60540;51.178;6.738;2023-03-03T13:01:00;28.13;;;9.93;;
72517;SDS011;60540;51.178;6.738;2023-03-03T13:06:10;24.20;;;9.07;;
72517;SDS011;60540;51.178;6.738;2023-03-03T13:08:50;25.77;;;9.48;;
72517;SDS011;60540;51.178;6.738;2023-03-03T13:11:33;31.67;;;10.52;;
72517;SDS011;60540;51.178;6.738;2023-03-03T13:19:51;32.28;;;11.60;;
72517;SDS011;60540;51.178;6.738;2023-03-03T13:28:01;27.90;;;9.93;;
72517;SDS011;60540;51.178;6.738;2023-03-03T13:30:32;23.92;;;9.52;;
72517;SDS011;60540;51.178;6.738;2023-03-03T13:33:21;22.90;;;9.07;;
72517;SDS011;60540;51.178;6.738;2023-03-03T13:35:55;27.52;;;9.63;;
72517;SDS011;60540;51.178;6.738;2023-03-03T13:38:25;28.00;;;10.07;;
72517;SDS011;60540;51.178;6.738;2023-03-03T13:41:00;22.17;;;8.43;;
72517;SDS011;60540;51.178;6.738;2023-03-03T13:43:33;24.15;;;8.98;;
72517;SDS011;60540;51.178;6.738;2023-03-03T13:46:07;25.27;;;8.82;;
72517;SDS011;60540;51.178;6.738;2023-03-03T13:51:28;25.55;;;9.60;;
72517;SDS011;60540;51.178;6.738;2023-03-03T14:08:07;23.42;;;9.48;;
72517;SDS011;60540;51.178;6.738;2023-03-03T14:10:57;22.13;;;10.02;;
72517;SDS011;60540;51.178;6.738;2023-03-03T14:19:14;25.08;;;8.18;;
72517;SDS011;60540;51.178;6.738;2023-03-03T14:24:18;21.33;;;8.82;;
72517;SDS011;60540;51.178;6.738;2023-03-03T14:26:46;23.35;;;9.70;;
72517;SDS011;60540;51.178;6.738;2023-03-03T14:36:46;21.48;;;8.10;;
72517;SDS011;60540;51.178;6.738;2023-03-03T14:39:32;23.73;;;10.15;;
72517;SDS011;60540;51.178;6.738;2023-03-03T14:42:10;25.23;;;9.95;;
72517;SDS011;60540;51.178;6.738;2023-03-03T14:44:55;24.83;;;10.25;;
72517;SDS011;60540;51.178;6.738;2023-03-03T14:47:21;23.70;;;11.38;;
72517;SDS011;60540;51.178;6.738;2023-03-03T14:49:48;26.70;;;10.75;;
72517;SDS011;60540;51.178;6.738;2023-03-03T14:54:41;27.30;;;12.45;;
72517;SDS011;60540;51.178;6.738;2023-03-03T15:02:35;22.60;;;10.23;;
72517;SDS011;60540;51.178;6.738;2023-03-03T15:05:18;23.75;;;9.32;;
72517;SDS011;60540;51.178;6.738;2023-03-03T15:07:49;22.15;;;8.95;;
72517;SDS011;60540;51.178;6.738;2023-03-03T15:10:28;23.55;;;10.23;;
72517;SDS011;60540;51.178;6.738;2023-03-03T15:12:55;19.20;;;9.38;;
72517;SDS011;60540;51.178;6.738;2023-03-03T15:15:23;23.48;;;10.57;;
72517;SDS011;60540;51.178;6.738;2023-03-03T15:31:06;27.85;;;11.23;;
72517;SDS011;60540;51.178;6.738;2023-03-03T15:36:10;27.00;;;11.45;;
72517;SDS011;60540;51.178;6.738;2023-03-03T15:41:17;27.27;;;11.85;;
72517;SDS011;60540;51.178;6.738;2023-03-03T15:52:21;26.23;;;11.80;;
72517;SDS011;60540;51.178;6.738;2023-03-03T15:54:58;25.30;;;11.05;;
72517;SDS011;60540;51.178;6.738;2023-03-03T16:00:05;26.50;;;11.55;;
72517;SDS011;60540;51.178;6.738;2023-03-03T16:02:51;22.90;;;10.88;;
72517;SDS011;60540;51.178;6.738;2023-03-03T16:05:30;26.33;;;11.93;;
72517;SDS011;60540;51.178;6.738;2023-03-03T16:08:02;24.75;;;11.60;;
72517;SDS011;60540;51.178;6.738;2023-03-03T16:10:42;28.88;;;11.70;;
72517;SDS011;60540;51.178;6.738;2023-03-03T16:15:57;21.02;;;10.52;;
72517;SDS011;60540;51.178;6.738;2023-03-03T16:21:12;27.52;;;11.73;;
72517;SDS011;60540;51.178;6.738;2023-03-03T16:31:48;21.27;;;10.77;;
72517;SDS011;60540;51.178;6.738;2023-03-03T16:34:41;24.27;;;11.60;;
72517;SDS011;60540;51.178;6.738;2023-03-03T16:40:14;23.98;;;12.10;;
72517;SDS011;60540;51.178;6.738;2023-03-03T16:42:45;24.02;;;11.43;;
72517;SDS011;60540;51.178;6.738;2023-03-03T16:48:04;25.33;;;12.32;;
72517;SDS011;60540;51.178;6.738;2023-03-03T16:53:42;25.90;;;11.93;;
72517;SDS011;60540;51.178;6.738;2023-03-03T16:56:33;25.25;;;11.32;;
72517;SDS011;60540;51.178;6.738;2023-03-03T16:59:18;24.70;;;11.00;;
72517;SDS011;60540;51.178;6.738;2023-03-03T17:04:55;29.15;;;13.15;;
72517;SDS011;60540;51.178;6.738;2023-03-03T17:07:35;29.00;;;12.70;;
72517;SDS011;60540;51.178;6.738;2023-03-03T17:10:19;29.35;;;13.13;;
72517;SDS011;60540;51.178;6.738;2023-03-03T17:12:51;23.23;;;10.82;;
72517;SDS011;60540;51.178;6.738;2023-03-03T17:20:48;33.53;;;14.30;;
72517;SDS011;60540;51.178;6.738;2023-03-03T17:26:23;30.60;;;13.55;;
72517;SDS011;60540;51.178;6.738;2023-03-03T17:37:51;31.45;;;13.55;;
72517;SDS011;60540;51.178;6.738;2023-03-03T17:40:30;29.92;;;14.52;;
72517;SDS011;60540;51.178;6.738;2023-03-03T17:45:41;35.50;;;15.20;;
72517;SDS011;60540;51.178;6.738;2023-03-03T17:49:11;34.38;;;14.02;;
72517;SDS011;60540;51.178;6.738;2023-03-03T17:59:30;39.42;;;16.67;;
72517;SDS011;60540;51.178;6.738;2023-03-03T18:07:59;41.40;;;17.20;;
72517;SDS011;60540;51.178;6.738;2023-03-03T18:13:42;42.35;;;18.15;;
72517;SDS011;60540;51.178;6.738;2023-03-03T18:22:46;41.83;;;18.77;;
72517;SDS011;60540;51.178;6.738;2023-03-03T18:25:25;42.10;;;19.13;;
72517;SDS011;60540;51.178;6.738;2023-03-03T18:28:20;40.10;;;17.55;;
72517;SDS011;60540;51.178;6.738;2023-03-03T18:30:58;40.05;;;18.58;;
72517;SDS011;60540;51.178;6.738;2023-03-03T18:33:34;37.08;;;18.17;;
72517;SDS011;60540;51.178;6.738;2023-03-03T18:36:13;40.97;;;17.83;;
72517;SDS011;60540;51.178;6.738;2023-03-03T18:38:40;40.63;;;17.95;;
72517;SDS011;60540;51.178;6.738;2023-03-03T18:41:10;47.30;;;18.52;;
72517;SDS011;60540;51.178;6.738;2023-03-03T18:48:53;41.78;;;18.15;;
72517;SDS011;60540;51.178;6.738;2023-03-03T18:59:14;47.58;;;19.40;;
72517;SDS011;60540;51.178;6.738;2023-03-03T19:02:33;44.13;;;17.92;;
72517;SDS011;60540;51.178;6.738;2023-03-03T19:10:05;45.42;;;20.17;;
72517;SDS011;60540;51.178;6.738;2023-03-03T19:12:56;42.90;;;19.40;;
72517;SDS011;60540;51.178;6.738;2023-03-03T19:17:56;44.50;;;19.40;;
72517;SDS011;60540;51.178;6.738;2023-03-03T19:20:23;42.10;;;17.83;;
72517;SDS011;60540;51.178;6.738;2023-03-03T19:22:50;41.45;;;18.33;;
72517;SDS011;60540;51.178;6.738;2023-03-03T19:25:23;45.88;;;19.92;;
72517;SDS011;60540;51.178;6.738;2023-03-03T19:36:05;47.13;;;18.98;;
72517;SDS011;60540;51.178;6.738;2023-03-03T19:38:44;47.78;;;19.55;;
72517;SDS011;60540;51.178;6.738;2023-03-03T19:43:49;48.17;;;17.92;;
72517;SDS011;60540;51.178;6.738;2023-03-03T19:49:13;44.80;;;16.75;;
72517;SDS011;60540;51.178;6.738;2023-03-03T19:51:49;40.72;;;17.83;;
72517;SDS011;60540;51.178;6.738;2023-03-03T19:57:19;46.90;;;17.70;;
72517;SDS011;60540;51.178;6.738;2023-03-03T20:02:31;42.28;;;16.92;;
72517;SDS011;60540;51.178;6.738;2023-03-03T20:08:14;42.30;;;16.85;;
72517;SDS011;60540;51.178;6.738;2023-03-03T20:10:52;42.30;;;18.00;;
72517;SDS011;60540;51.178;6.738;2023-03-03T20:13:24;42.08;;;17.42;;
72517;SDS011;60540;51.178;6.738;2023-03-03T20:16:38;41.10;;;17.25;;
72517;SDS011;60540;51.178;6.738;2023-03-03T20:22:08;40.42;;;16.33;;
72517;SDS011;60540;51.178;6.738;2023-03-03T20:30:23;35.28;;;15.85;;
72517;SDS011;60540;51.178;6.738;2023-03-03T20:38:35;43.30;;;17.02;;
72517;SDS011;60540;51.178;6.738;2023-03-03T20:41:45;44.08;;;16.35;;
72517;SDS011;60540;51.178;6.738;2023-03-03T20:44:22;41.17;;;17.02;;
72517;SDS011;60540;51.178;6.738;2023-03-03T20:52:28;41.97;;;15.75;;
72517;SDS011;60540;51.178;6.738;2023-03-03T20:55:51;40.65;;;15.80;;